X  Zatvori METAR podaci zračne luke     EDDM Munich Airport
Temperatura
14°C Temperatura
11°C Točka rosišta
82% Vlaga



Vjetar
5 MPS
8 KM/S
2 M/S
4 Čvorovi



150°
JJI
Trenutna situacija

Djelimično oblačno Djelimično oblačno
Tlak zraka 1006.77 (hPa) - 29.73 (inHg)
Vidljivost 6 (milje) - 9.7 (km)
Zračna luka
Kôd zračne luke EDDM

Lokacija: Munich Airport
Udaljenost: 73 (mi)

Metar:
EDDM 151450Z AUTO 15004KT 090V200 9999 FEW011 BKN018 BKN026 14/11 Q1007 BECMG 24008KT

Vrijeme: 15-04-2024 14:50 CEST